createdAt,value
2023-05-19T00:01:38.059Z,4.47
2023-05-19T00:04:05.354Z,4.00
2023-05-19T00:06:32.597Z,4.35
2023-05-19T00:09:03.170Z,4.50
2023-05-19T00:11:29.900Z,5.05
2023-05-19T00:13:57.837Z,4.43
2023-05-19T00:16:25.124Z,4.32
2023-05-19T00:18:53.234Z,4.63
2023-05-19T00:21:20.532Z,5.63
2023-05-19T00:23:46.892Z,4.63
2023-05-19T00:26:13.320Z,4.07
2023-05-19T00:28:49.602Z,4.72
2023-05-19T00:31:16.309Z,4.72
2023-05-19T00:33:42.784Z,4.65
2023-05-19T00:36:09.211Z,4.65
2023-05-19T00:38:36.766Z,4.05
2023-05-19T00:41:03.734Z,4.50
2023-05-19T00:43:30.368Z,4.25
2023-05-19T00:45:57.254Z,5.10
2023-05-19T00:48:24.989Z,5.15
2023-05-19T00:50:53.052Z,4.88
2023-05-19T00:53:19.742Z,4.35
2023-05-19T00:55:46.261Z,5.15
2023-05-19T00:58:13.904Z,4.72
2023-05-19T01:00:40.681Z,5.25
2023-05-19T01:03:13.398Z,5.15
2023-05-19T01:05:41.720Z,4.60
2023-05-19T01:08:08.678Z,4.85
2023-05-19T01:10:36.497Z,5.05
2023-05-19T01:13:03.758Z,5.18
2023-05-19T01:15:30.629Z,5.13
2023-05-19T01:18:15.671Z,4.75
2023-05-19T01:20:46.214Z,5.60
2023-05-19T01:23:17.779Z,5.35
2023-05-19T01:26:09.619Z,5.45
2023-05-19T01:28:45.335Z,5.15
2023-05-19T01:31:12.021Z,5.05
2023-05-19T01:33:39.841Z,5.25
2023-05-19T01:36:07.616Z,5.68
2023-05-19T01:38:34.779Z,4.93
2023-05-19T01:41:02.917Z,4.65
2023-05-19T01:43:29.335Z,5.28
2023-05-19T01:45:57.303Z,5.90
2023-05-19T01:48:24.647Z,5.60
2023-05-19T01:50:51.553Z,5.93
2023-05-19T01:53:17.975Z,5.28
2023-05-19T01:55:46.216Z,5.25
2023-05-19T01:58:31.527Z,5.75
2023-05-19T02:01:10.416Z,5.75
2023-05-19T02:03:56.860Z,5.80
2023-05-19T02:06:32.880Z,5.90
2023-05-19T02:09:03.627Z,6.13
2023-05-19T02:11:31.078Z,5.33
2023-05-19T02:14:03.228Z,5.95
2023-05-19T02:16:30.049Z,5.47
2023-05-19T02:18:59.152Z,7.18
2023-05-19T02:21:29.191Z,6.43
2023-05-19T02:23:55.646Z,5.63
2023-05-19T02:26:22.734Z,6.75
2023-05-19T02:28:49.129Z,5.72
2023-05-19T02:31:15.545Z,5.82
2023-05-19T02:33:42.933Z,6.22
2023-05-19T02:36:09.911Z,6.43
2023-05-19T02:38:36.329Z,7.30
2023-05-19T02:41:02.722Z,6.82
2023-05-19T02:43:30.623Z,6.70
2023-05-19T02:45:57.078Z,6.53
2023-05-19T02:48:25.706Z,7.60
2023-05-19T02:50:52.143Z,8.10
2023-05-19T02:53:18.561Z,5.65
2023-05-19T02:55:45.053Z,6.40
2023-05-19T02:58:11.502Z,6.65
2023-05-19T03:00:37.957Z,7.10
2023-05-19T03:03:04.617Z,7.20
2023-05-19T03:05:31.490Z,6.47
2023-05-19T03:07:57.927Z,6.50
2023-05-19T03:10:24.350Z,7.78
2023-05-19T03:12:50.758Z,7.05
2023-05-19T03:15:18.653Z,7.45
2023-05-19T03:17:45.148Z,6.68
2023-05-19T03:20:11.792Z,7.75
2023-05-19T03:22:38.194Z,7.18
2023-05-19T03:25:08.213Z,8.32
2023-05-19T03:27:35.035Z,7.68
2023-05-19T03:30:01.872Z,8.20
2023-05-19T03:32:29.902Z,8.35
2023-05-19T03:34:56.490Z,7.22
2023-05-19T03:37:22.931Z,7.32
2023-05-19T03:39:49.347Z,7.95
2023-05-19T03:42:16.080Z,8.35
2023-05-19T03:44:42.498Z,7.70
2023-05-19T03:47:09.866Z,8.13
2023-05-19T03:49:36.292Z,8.38
2023-05-19T03:52:21.697Z,8.77
2023-05-19T03:55:07.030Z,7.20
2023-05-19T03:57:33.637Z,8.20
2023-05-19T04:00:00.042Z,6.97
2023-05-19T04:02:26.564Z,8.07
2023-05-19T04:04:53.765Z,7.72
2023-05-19T04:07:20.458Z,7.47
2023-05-19T04:09:48.604Z,8.60
2023-05-19T04:12:15.033Z,7.60
2023-05-19T04:14:41.477Z,7.85
2023-05-19T04:17:09.668Z,8.82
2023-05-19T04:19:38.342Z,8.07
2023-05-19T04:22:04.859Z,7.95
2023-05-19T04:24:31.396Z,7.82
2023-05-19T04:27:02.547Z,8.48
2023-05-19T04:29:29.499Z,7.47
2023-05-19T04:31:57.227Z,8.65
2023-05-19T04:34:25.053Z,8.65
2023-05-19T04:36:53.517Z,8.32
2023-05-19T04:39:21.608Z,8.63
2023-05-19T04:41:49.416Z,8.02
2023-05-19T04:44:18.328Z,8.60
2023-05-19T04:46:46.941Z,7.65
2023-05-19T04:49:14.458Z,8.70
2023-05-19T04:51:46.105Z,7.68
2023-05-19T04:54:12.503Z,7.63
2023-05-19T04:56:38.935Z,7.82
2023-05-19T04:59:06.808Z,7.60
2023-05-19T05:01:33.910Z,7.40
2023-05-19T05:04:02.438Z,8.85
2023-05-19T05:06:29.665Z,7.50
2023-05-19T05:08:56.891Z,8.68
2023-05-19T05:11:24.556Z,8.10
2023-05-19T05:13:51.722Z,8.07
2023-05-19T05:16:19.030Z,8.50
2023-05-19T05:18:46.837Z,8.02
2023-05-19T05:21:13.428Z,7.82
2023-05-19T05:23:40.519Z,8.73
2023-05-19T05:26:10.429Z,8.23
2023-05-19T05:28:36.846Z,8.45
2023-05-19T05:31:03.362Z,8.80
2023-05-19T05:33:30.041Z,8.10
2023-05-19T05:35:56.640Z,7.80
2023-05-19T05:38:23.884Z,8.05
2023-05-19T05:40:50.372Z,7.35
2023-05-19T05:43:16.864Z,8.15
2023-05-19T05:45:49.349Z,9.07
2023-05-19T05:48:16.091Z,7.78
2023-05-19T05:50:43.468Z,7.78
2023-05-19T05:53:12.898Z,7.95
2023-05-19T05:55:40.279Z,8.07
2023-05-19T05:58:11.254Z,7.60
2023-05-19T06:00:38.047Z,7.80
2023-05-19T06:03:04.712Z,7.68
2023-05-19T06:05:31.390Z,8.25
2023-05-19T06:07:57.849Z,7.32
2023-05-19T06:10:26.567Z,7.72
2023-05-19T06:12:54.582Z,7.20
2023-05-19T06:15:21.896Z,7.25
2023-05-19T06:18:05.387Z,6.90
2023-05-19T06:20:32.192Z,7.03
2023-05-19T06:22:59.942Z,6.55
2023-05-19T06:25:27.420Z,5.45
2023-05-19T06:27:54.942Z,5.65
2023-05-19T06:30:22.642Z,4.97
2023-05-19T06:33:15.442Z,5.85
2023-05-19T06:35:42.771Z,5.05
2023-05-19T06:38:09.173Z,6.00
2023-05-19T06:40:39.078Z,4.95
2023-05-19T06:43:05.508Z,5.60
2023-05-19T06:45:52.004Z,5.55
2023-05-19T06:48:18.684Z,4.78
2023-05-19T06:50:45.238Z,4.85
2023-05-19T06:53:12.723Z,5.10
2023-05-19T06:55:50.492Z,5.63
2023-05-19T06:58:25.288Z,6.07
2023-05-19T07:00:51.739Z,6.28
2023-05-19T07:03:18.357Z,7.35
2023-05-19T07:05:44.937Z,5.35
2023-05-19T07:08:11.470Z,4.68
2023-05-19T07:10:37.959Z,4.88
2023-05-19T07:13:09.072Z,4.38
2023-05-19T07:15:36.393Z,4.03
2023-05-19T07:18:03.394Z,4.32
2023-05-19T07:20:29.889Z,4.15
2023-05-19T07:22:57.292Z,5.38
2023-05-19T07:25:26.088Z,4.22
2023-05-19T07:27:53.132Z,4.43
2023-05-19T07:30:19.559Z,3.75
2023-05-19T07:32:45.964Z,4.20
2023-05-19T07:35:12.426Z,4.38
2023-05-19T07:37:38.899Z,4.50
2023-05-19T07:40:06.714Z,4.07
2023-05-19T07:42:33.162Z,3.72
2023-05-19T07:44:59.588Z,3.60
2023-05-19T07:47:26.073Z,2.58
2023-05-19T07:49:52.572Z,3.13
2023-05-19T07:52:18.974Z,3.50
2023-05-19T07:54:45.672Z,3.22
2023-05-19T07:57:12.125Z,3.22
2023-05-19T07:59:38.507Z,3.70
2023-05-19T08:02:05.023Z,3.22
2023-05-19T08:04:31.436Z,3.10
2023-05-19T08:06:57.798Z,3.13
2023-05-19T08:09:25.511Z,2.90
2023-05-19T08:11:51.886Z,3.08
2023-05-19T08:14:19.491Z,2.63
2023-05-19T08:16:46.454Z,3.08
2023-05-19T08:19:13.065Z,2.70
2023-05-19T08:21:39.546Z,3.80
2023-05-19T08:24:06.337Z,2.28
2023-05-19T08:26:34.179Z,2.70
2023-05-19T08:29:02.285Z,2.42
2023-05-19T08:31:29.482Z,2.60
2023-05-19T08:33:55.939Z,2.88
2023-05-19T08:36:22.438Z,2.45
2023-05-19T08:38:49.038Z,2.33
2023-05-19T08:41:16.507Z,2.55
2023-05-19T08:43:43.766Z,2.78
2023-05-19T08:46:13.291Z,2.60
2023-05-19T08:48:40.156Z,2.47
2023-05-19T08:51:14.413Z,2.45
2023-05-19T08:53:43.959Z,2.13
2023-05-19T08:56:18.407Z,2.35
2023-05-19T08:58:45.878Z,2.65
2023-05-19T09:01:17.022Z,2.97
2023-05-19T09:03:44.269Z,2.40
2023-05-19T09:06:14.118Z,2.45
2023-05-19T09:08:41.368Z,2.50
2023-05-19T09:11:09.025Z,2.20
2023-05-19T09:13:35.507Z,2.60
2023-05-19T09:16:03.121Z,2.47
2023-05-19T09:18:29.867Z,2.47
2023-05-19T09:21:00.391Z,2.25
2023-05-19T09:23:28.715Z,2.38
2023-05-19T09:25:58.041Z,2.28
2023-05-19T09:28:25.402Z,2.30
2023-05-19T09:31:05.154Z,2.13
2023-05-19T09:33:33.174Z,2.53
2023-05-19T09:35:59.616Z,2.45
2023-05-19T09:38:29.453Z,2.50
2023-05-19T09:40:57.297Z,2.53
2023-05-19T09:43:23.851Z,2.83
2023-05-19T09:46:00.036Z,2.20
2023-05-19T09:48:27.768Z,2.33
2023-05-19T09:50:54.567Z,2.90
2023-05-19T09:53:21.397Z,2.20
2023-05-19T09:55:48.504Z,2.08
2023-05-19T09:58:21.777Z,2.22
2023-05-19T10:00:48.370Z,2.28
2023-05-19T10:03:16.517Z,2.28
2023-05-19T10:05:45.304Z,2.40
2023-05-19T10:08:11.879Z,2.75
2023-05-19T10:10:38.663Z,2.40
2023-05-19T10:13:05.806Z,2.20
2023-05-19T10:15:34.433Z,2.92
2023-05-19T10:18:03.020Z,2.40
2023-05-19T10:20:31.045Z,2.30
2023-05-19T10:22:57.702Z,2.45
2023-05-19T10:25:24.135Z,2.40
2023-05-19T10:27:55.079Z,2.80
2023-05-19T10:30:33.204Z,2.65
2023-05-19T10:33:00.321Z,2.30
2023-05-19T10:35:26.724Z,2.67
2023-05-19T10:37:53.124Z,2.20
2023-05-19T10:40:30.061Z,2.33
2023-05-19T10:43:07.457Z,2.88
2023-05-19T10:45:37.811Z,2.55
2023-05-19T10:48:04.332Z,2.00
2023-05-19T10:50:36.108Z,2.15
2023-05-19T10:53:02.571Z,3.42
2023-05-19T10:55:44.875Z,2.83
2023-05-19T10:58:11.594Z,2.65
2023-05-19T11:00:39.275Z,2.88
2023-05-19T11:03:15.654Z,2.22
2023-05-19T11:05:45.242Z,2.55
2023-05-19T11:08:12.564Z,2.70
2023-05-19T11:10:39.025Z,2.72
2023-05-19T11:13:06.480Z,3.20
2023-05-19T11:15:37.237Z,2.50
2023-05-19T11:18:04.966Z,2.47
2023-05-19T11:20:34.633Z,2.45
2023-05-19T11:23:02.284Z,2.30
2023-05-19T11:25:47.616Z,2.60
2023-05-19T11:28:19.448Z,2.70
2023-05-19T11:30:50.600Z,2.15
2023-05-19T11:33:20.087Z,1.90
2023-05-19T11:35:47.317Z,2.28
2023-05-19T11:38:14.049Z,2.10
2023-05-19T11:40:42.063Z,2.20
2023-05-19T11:43:08.525Z,1.77
2023-05-19T11:45:35.339Z,2.30
2023-05-19T11:48:05.456Z,2.28
2023-05-19T11:50:32.503Z,1.67
2023-05-19T11:53:00.195Z,2.38
2023-05-19T11:55:27.117Z,2.75
2023-05-19T11:58:03.928Z,2.60
2023-05-19T12:00:37.269Z,2.97
2023-05-19T12:03:04.163Z,3.10
2023-05-19T12:05:33.600Z,2.75
2023-05-19T12:08:03.203Z,2.85
2023-05-19T12:10:31.135Z,2.47
2023-05-19T12:13:00.775Z,3.15
2023-05-19T12:15:27.252Z,3.40
2023-05-19T12:17:59.031Z,3.35
2023-05-19T12:20:26.403Z,2.70
2023-05-19T12:22:54.347Z,3.97
2023-05-19T12:25:20.967Z,2.92
2023-05-19T12:27:49.469Z,2.75
2023-05-19T12:30:16.597Z,2.58
2023-05-19T12:32:43.759Z,3.70
2023-05-19T12:35:10.434Z,2.80
2023-05-19T12:37:37.218Z,3.10
2023-05-19T12:40:07.083Z,2.95
2023-05-19T12:42:35.180Z,2.88
2023-05-19T12:45:04.910Z,2.65
2023-05-19T12:47:35.253Z,2.70
2023-05-19T12:50:09.185Z,3.10
2023-05-19T12:52:45.902Z,2.60
2023-05-19T12:55:12.963Z,2.65
2023-05-19T12:57:50.670Z,2.97
2023-05-19T13:00:21.731Z,3.90
2023-05-19T13:02:55.866Z,3.13
2023-05-19T13:05:25.298Z,2.53
2023-05-19T13:07:58.191Z,2.45
2023-05-19T13:10:27.012Z,2.47
2023-05-19T13:12:55.766Z,2.50
2023-05-19T13:15:23.232Z,2.80
2023-05-19T13:17:49.665Z,2.55
2023-05-19T13:20:16.159Z,2.67
2023-05-19T13:22:43.195Z,2.50
2023-05-19T13:25:09.843Z,2.90
2023-05-19T13:27:36.392Z,2.83
2023-05-19T13:30:04.540Z,2.70
2023-05-19T13:32:30.968Z,2.72
2023-05-19T13:34:57.422Z,2.63
2023-05-19T13:37:24.567Z,2.53
2023-05-19T13:39:50.971Z,2.30
2023-05-19T13:42:18.765Z,2.45
2023-05-19T13:44:47.786Z,2.85
2023-05-19T13:47:19.293Z,3.33
2023-05-19T13:49:46.343Z,2.80
2023-05-19T13:52:17.044Z,2.38
2023-05-19T13:54:43.541Z,2.30
2023-05-19T13:57:09.973Z,2.33
2023-05-19T13:59:43.045Z,2.55
2023-05-19T14:02:16.218Z,2.70
2023-05-19T14:04:44.777Z,2.63
2023-05-19T14:07:11.253Z,2.92
2023-05-19T14:09:37.801Z,2.30
2023-05-19T14:12:05.613Z,3.22
2023-05-19T14:14:32.764Z,2.65
2023-05-19T14:16:59.250Z,3.15
2023-05-19T14:19:30.181Z,2.67
2023-05-19T14:21:57.698Z,2.50
2023-05-19T14:24:24.228Z,2.15
2023-05-19T14:26:50.751Z,2.80
2023-05-19T14:29:17.221Z,2.60
2023-05-19T14:31:43.759Z,2.50
2023-05-19T14:34:10.521Z,2.38
2023-05-19T14:36:37.247Z,2.78
2023-05-19T14:39:03.677Z,2.63
2023-05-19T14:41:31.138Z,2.55
2023-05-19T14:43:57.568Z,2.50
2023-05-19T14:46:23.993Z,2.60
2023-05-19T14:48:50.483Z,2.40
2023-05-19T14:51:16.932Z,2.42
2023-05-19T14:53:43.348Z,2.75
2023-05-19T14:56:09.765Z,3.30
2023-05-19T14:58:36.212Z,2.65
2023-05-19T15:01:02.722Z,2.95
2023-05-19T15:03:29.195Z,3.05
2023-05-19T15:05:55.609Z,2.20
2023-05-19T15:08:23.199Z,2.53
2023-05-19T15:10:50.050Z,2.10
2023-05-19T15:13:18.838Z,2.50
2023-05-19T15:15:45.929Z,2.30
2023-05-19T15:18:13.084Z,2.17
2023-05-19T15:20:39.550Z,2.42
2023-05-19T15:23:07.852Z,2.05
2023-05-19T15:25:34.563Z,2.17
2023-05-19T15:28:03.888Z,2.10
2023-05-19T15:30:31.013Z,2.00
2023-05-19T15:32:57.447Z,2.20
2023-05-19T15:35:25.085Z,2.28
2023-05-19T15:37:51.569Z,2.35
2023-05-19T15:40:17.988Z,2.63
2023-05-19T15:42:44.391Z,2.38
2023-05-19T15:45:10.840Z,1.75
2023-05-19T15:47:37.208Z,2.67
2023-05-19T15:50:03.764Z,2.40
2023-05-19T15:52:30.203Z,2.60
2023-05-19T15:54:58.945Z,2.72
2023-05-19T15:57:25.419Z,2.45
2023-05-19T15:59:51.802Z,2.80
2023-05-19T16:02:18.317Z,2.63
2023-05-19T16:04:44.800Z,2.55
2023-05-19T16:07:11.185Z,2.70
2023-05-19T16:09:37.545Z,2.20
2023-05-19T16:12:04.020Z,2.40
2023-05-19T16:14:36.142Z,2.33
2023-05-19T16:17:04.043Z,2.22
2023-05-19T16:19:31.816Z,2.30
2023-05-19T16:21:58.396Z,2.50
2023-05-19T16:24:25.825Z,2.40
2023-05-19T16:26:54.059Z,2.15
2023-05-19T16:29:20.546Z,2.22
2023-05-19T16:31:46.997Z,2.45
2023-05-19T16:34:13.497Z,1.98
2023-05-19T16:36:39.885Z,2.70
2023-05-19T16:39:06.380Z,2.03
2023-05-19T16:41:32.796Z,2.03
2023-05-19T16:43:59.264Z,2.40
2023-05-19T16:46:25.876Z,2.33
2023-05-19T16:48:52.654Z,2.47
2023-05-19T16:51:19.534Z,2.35
2023-05-19T16:53:46.152Z,2.50
2023-05-19T16:56:12.998Z,2.30
2023-05-19T16:58:39.403Z,1.92
2023-05-19T17:01:05.804Z,2.15
2023-05-19T17:03:32.335Z,2.33
2023-05-19T17:05:58.816Z,1.70
2023-05-19T17:08:25.271Z,2.45
2023-05-19T17:10:51.681Z,2.40
2023-05-19T17:13:18.141Z,2.58
2023-05-19T17:15:44.476Z,2.15
2023-05-19T17:18:12.426Z,3.08
2023-05-19T17:20:38.954Z,2.22
2023-05-19T17:23:05.304Z,2.22
2023-05-19T17:25:32.614Z,2.45
2023-05-19T17:27:59.077Z,2.17
2023-05-19T17:30:25.618Z,2.60
2023-05-19T17:32:52.216Z,2.13
2023-05-19T17:35:18.723Z,2.35
2023-05-19T17:37:45.063Z,2.28
2023-05-19T17:40:11.757Z,2.35
2023-05-19T17:42:38.147Z,2.60
2023-05-19T17:45:07.456Z,3.55
2023-05-19T17:47:34.183Z,2.08
2023-05-19T17:50:00.639Z,1.90
2023-05-19T17:52:27.115Z,2.03
2023-05-19T17:54:53.815Z,2.15
2023-05-19T17:57:24.416Z,1.80
2023-05-19T17:59:51.020Z,2.22
2023-05-19T18:02:18.506Z,2.33
2023-05-19T18:04:45.692Z,2.33
2023-05-19T18:07:13.734Z,2.17
2023-05-19T18:09:42.473Z,2.33
2023-05-19T18:12:08.902Z,2.22
2023-05-19T18:14:37.745Z,1.85
2023-05-19T18:17:04.375Z,2.20
2023-05-19T18:19:30.795Z,2.35
2023-05-19T18:21:57.298Z,2.17
2023-05-19T18:24:26.399Z,2.42
2023-05-19T18:26:52.842Z,2.80
2023-05-19T18:29:19.345Z,2.28
2023-05-19T18:31:45.884Z,2.83
2023-05-19T18:34:13.873Z,3.08
2023-05-19T18:36:40.339Z,2.40
2023-05-19T18:39:06.859Z,2.38
2023-05-19T18:41:33.344Z,2.17
2023-05-19T18:43:59.788Z,2.30
2023-05-19T18:46:26.445Z,2.22
2023-05-19T18:48:53.040Z,2.38
2023-05-19T18:51:21.284Z,2.10
2023-05-19T18:53:50.057Z,2.50
2023-05-19T18:56:26.119Z,2.35
2023-05-19T18:58:53.132Z,2.17
2023-05-19T19:01:19.611Z,2.03
2023-05-19T19:03:49.397Z,2.38
2023-05-19T19:06:20.718Z,1.98
2023-05-19T19:08:47.405Z,2.25
2023-05-19T19:11:13.887Z,1.75
2023-05-19T19:13:40.508Z,2.10
2023-05-19T19:16:08.028Z,2.08
2023-05-19T19:18:36.410Z,2.13
2023-05-19T19:21:05.344Z,2.15
2023-05-19T19:23:31.903Z,2.22
2023-05-19T19:25:58.337Z,2.08
2023-05-19T19:28:25.056Z,2.20
2023-05-19T19:30:53.592Z,2.13
2023-05-19T19:33:20.137Z,2.10
2023-05-19T19:35:49.327Z,3.22
2023-05-19T19:38:15.826Z,2.10
2023-05-19T19:40:42.175Z,2.60
2023-05-19T19:43:08.632Z,3.47
2023-05-19T19:45:36.322Z,2.75
2023-05-19T19:48:02.853Z,3.00
2023-05-19T19:50:29.410Z,3.53
2023-05-19T19:52:56.058Z,2.75
2023-05-19T19:55:22.444Z,2.67
2023-05-19T19:57:50.964Z,2.55
2023-05-19T20:00:18.010Z,2.30
2023-05-19T20:03:02.942Z,2.30
2023-05-19T20:05:30.844Z,2.80
2023-05-19T20:07:57.640Z,2.67
2023-05-19T20:10:24.170Z,2.80
2023-05-19T20:12:51.149Z,2.60
2023-05-19T20:15:17.905Z,2.33
2023-05-19T20:17:44.358Z,3.15
2023-05-19T20:20:12.252Z,2.63
2023-05-19T20:22:39.111Z,2.97
2023-05-19T20:25:05.997Z,3.15
2023-05-19T20:27:32.368Z,3.15
2023-05-19T20:29:58.844Z,3.40
2023-05-19T20:32:25.625Z,3.42
2023-05-19T20:34:52.134Z,4.15
2023-05-19T20:37:18.964Z,3.60
2023-05-19T20:39:45.306Z,4.28
2023-05-19T20:42:11.724Z,3.63
2023-05-19T20:44:38.229Z,3.72
2023-05-19T20:47:04.811Z,3.72
2023-05-19T20:49:31.171Z,3.80
2023-05-19T20:51:57.832Z,4.05
2023-05-19T20:54:24.334Z,4.57
2023-05-19T20:56:51.581Z,3.92
2023-05-19T20:59:18.060Z,4.60
2023-05-19T21:01:46.079Z,4.88
2023-05-19T21:04:12.628Z,3.50
2023-05-19T21:06:39.413Z,3.72
2023-05-19T21:09:06.951Z,4.43
2023-05-19T21:11:33.868Z,5.18
2023-05-19T21:14:05.955Z,3.85
2023-05-19T21:16:33.871Z,4.07
2023-05-19T21:19:01.656Z,4.18
2023-05-19T21:21:35.360Z,3.65
2023-05-19T21:24:01.860Z,3.70
2023-05-19T21:26:28.244Z,3.55
2023-05-19T21:28:55.243Z,4.00
2023-05-19T21:31:21.681Z,3.70
2023-05-19T21:33:48.202Z,2.83
2023-05-19T21:36:14.616Z,2.95
2023-05-19T21:38:40.979Z,3.60
2023-05-19T21:41:07.765Z,3.67
2023-05-19T21:43:34.210Z,3.13
2023-05-19T21:46:00.783Z,3.63
2023-05-19T21:48:27.161Z,3.42
2023-05-19T21:50:54.464Z,3.28
2023-05-19T21:53:21.021Z,3.15
2023-05-19T21:55:47.407Z,3.10
2023-05-19T21:58:13.778Z,3.20
2023-05-19T22:00:40.498Z,3.55
2023-05-19T22:03:11.158Z,3.03
2023-05-19T22:05:38.281Z,3.25
2023-05-19T22:08:04.988Z,3.63
2023-05-19T22:10:31.866Z,3.55
2023-05-19T22:12:58.573Z,3.45
2023-05-19T22:15:25.087Z,2.83
2023-05-19T22:17:51.731Z,3.88
2023-05-19T22:20:18.255Z,4.03
2023-05-19T22:22:44.616Z,3.50
2023-05-19T22:25:11.012Z,3.35
2023-05-19T22:27:37.371Z,3.97
2023-05-19T22:30:04.633Z,3.28
2023-05-19T22:32:32.116Z,3.67
2023-05-19T22:34:58.502Z,3.80
2023-05-19T22:37:24.977Z,3.42
2023-05-19T22:39:51.695Z,3.65
2023-05-19T22:42:18.561Z,3.72
2023-05-19T22:44:46.532Z,3.50
2023-05-19T22:47:15.516Z,3.50
2023-05-19T22:49:42.461Z,4.07
2023-05-19T22:52:09.393Z,4.20
2023-05-19T22:54:35.932Z,4.45
2023-05-19T22:57:03.304Z,3.33
2023-05-19T22:59:29.766Z,3.40
2023-05-19T23:01:56.270Z,3.60
2023-05-19T23:04:22.851Z,3.88
2023-05-19T23:06:49.585Z,2.75
2023-05-19T23:09:17.803Z,3.45
2023-05-19T23:11:44.479Z,3.55
2023-05-19T23:14:10.872Z,2.90
2023-05-19T23:16:37.268Z,3.80
2023-05-19T23:19:03.787Z,3.53
2023-05-19T23:21:31.267Z,3.67
2023-05-19T23:23:57.804Z,4.13
2023-05-19T23:26:24.211Z,3.72
2023-05-19T23:28:53.447Z,3.20
2023-05-19T23:31:19.902Z,3.90
2023-05-19T23:33:46.283Z,3.92
2023-05-19T23:36:13.606Z,4.00
2023-05-19T23:38:40.229Z,3.08
2023-05-19T23:41:06.786Z,3.65
2023-05-19T23:43:33.357Z,3.90
2023-05-19T23:45:59.861Z,3.92
2023-05-19T23:48:27.335Z,4.20
2023-05-19T23:50:53.738Z,3.72
2023-05-19T23:53:20.107Z,3.05
2023-05-19T23:55:47.344Z,3.90
2023-05-19T23:58:13.738Z,3.53
